createdAt,value
2023-01-11T00:00:06.126Z,1.00
2023-01-11T00:00:18.481Z,0.98
2023-01-11T00:00:30.444Z,1.00
2023-01-11T00:00:43.956Z,0.90
2023-01-11T00:00:56.811Z,0.80
2023-01-11T00:01:09.257Z,0.77
2023-01-11T00:01:21.478Z,1.00
2023-01-11T00:01:33.425Z,1.00
2023-01-11T00:01:45.398Z,0.88
2023-01-11T00:01:57.659Z,0.93
2023-01-11T00:02:09.683Z,1.00
2023-01-11T00:02:21.771Z,0.90
2023-01-11T00:02:34.436Z,0.82
2023-01-11T00:02:46.936Z,0.90
2023-01-11T00:03:00.977Z,0.80
2023-01-11T00:03:13.580Z,0.82
2023-01-11T00:03:28.913Z,0.98
2023-01-11T00:03:40.830Z,1.00
2023-01-11T00:03:53.040Z,0.90
2023-01-11T00:04:05.077Z,0.90
2023-01-11T00:04:17.344Z,0.90
2023-01-11T00:04:30.669Z,0.80
2023-01-11T00:04:42.816Z,1.13
2023-01-11T00:04:54.882Z,1.20
2023-01-11T00:05:07.444Z,0.90
2023-01-11T00:05:19.500Z,0.82
2023-01-11T00:05:31.914Z,0.90
2023-01-11T00:05:45.412Z,0.80
2023-01-11T00:05:58.836Z,0.90
2023-01-11T00:06:11.397Z,0.90
2023-01-11T00:06:23.459Z,0.90
2023-01-11T00:06:35.453Z,0.80
2023-01-11T00:06:47.630Z,0.80
2023-01-11T00:06:59.751Z,0.80
2023-01-11T00:07:11.940Z,0.80
2023-01-11T00:07:23.871Z,0.90
2023-01-11T00:07:36.073Z,0.93
2023-01-11T00:07:48.018Z,1.00
2023-01-11T00:07:59.982Z,1.00
2023-01-11T00:08:12.177Z,1.10
2023-01-11T00:08:28.448Z,0.93
2023-01-11T00:08:40.431Z,0.88
2023-01-11T00:08:52.587Z,0.90
2023-01-11T00:09:04.590Z,1.00
2023-01-11T00:09:17.079Z,1.00
2023-01-11T00:09:28.976Z,0.80
2023-01-11T00:09:40.981Z,0.70
2023-01-11T00:09:53.076Z,0.77
2023-01-11T00:10:05.706Z,1.00
2023-01-11T00:10:18.729Z,1.10
2023-01-11T00:10:30.691Z,1.05
2023-01-11T00:10:42.839Z,1.08
2023-01-11T00:10:55.324Z,1.00
2023-01-11T00:11:13.978Z,0.88
2023-01-11T00:11:26.473Z,1.00
2023-01-11T00:11:38.430Z,1.00
2023-01-11T00:11:50.383Z,0.98
2023-01-11T00:12:02.351Z,1.00
2023-01-11T00:12:14.959Z,1.00
2023-01-11T00:12:26.940Z,0.82
2023-01-11T00:12:38.959Z,0.80
2023-01-11T00:12:50.897Z,0.85
2023-01-11T00:13:03.909Z,0.90
2023-01-11T00:13:16.419Z,0.90
2023-01-11T00:13:29.261Z,0.93
2023-01-11T00:13:41.455Z,0.93
2023-01-11T00:13:53.369Z,0.80
2023-01-11T00:14:05.346Z,0.80
2023-01-11T00:14:17.424Z,0.80
2023-01-11T00:14:29.375Z,0.88
2023-01-11T00:14:41.483Z,0.80
2023-01-11T00:14:53.387Z,0.80
2023-01-11T00:15:05.973Z,0.75
2023-01-11T00:15:17.963Z,0.70
2023-01-11T00:15:30.133Z,0.63
2023-01-11T00:15:42.844Z,0.77
2023-01-11T00:15:54.848Z,0.88
2023-01-11T00:16:08.592Z,0.80
2023-01-11T00:16:20.586Z,0.80
2023-01-11T00:16:32.543Z,0.80
2023-01-11T00:16:44.519Z,0.90
2023-01-11T00:16:59.341Z,0.98
2023-01-11T00:17:11.315Z,0.98
2023-01-11T00:17:23.576Z,1.00
2023-01-11T00:17:35.540Z,0.90
2023-01-11T00:17:47.455Z,0.85
2023-01-11T00:17:59.470Z,0.80
2023-01-11T00:18:12.146Z,0.80
2023-01-11T00:18:24.071Z,0.90
2023-01-11T00:18:36.420Z,0.90
2023-01-11T00:18:48.334Z,1.00
2023-01-11T00:19:00.270Z,1.00
2023-01-11T00:19:12.668Z,0.90
2023-01-11T00:19:24.749Z,0.70
2023-01-11T00:19:36.745Z,0.80
2023-01-11T00:19:48.923Z,0.90
2023-01-11T00:20:03.671Z,0.82
2023-01-11T00:20:15.734Z,0.75
2023-01-11T00:20:27.639Z,0.77
2023-01-11T00:20:41.338Z,0.80
2023-01-11T00:20:53.534Z,0.70
2023-01-11T00:21:06.122Z,0.80
2023-01-11T00:21:18.061Z,0.80
2023-01-11T00:21:30.072Z,0.80
2023-01-11T00:21:42.060Z,0.80
2023-01-11T00:21:54.037Z,0.88
2023-01-11T00:22:06.034Z,1.00
2023-01-11T00:22:20.064Z,0.88
2023-01-11T00:22:32.044Z,0.77
2023-01-11T00:22:43.923Z,0.70
2023-01-11T00:22:55.847Z,0.70
2023-01-11T00:23:08.409Z,0.80
2023-01-11T00:23:20.361Z,0.95
2023-01-11T00:23:33.630Z,0.95
2023-01-11T00:23:49.438Z,0.90
2023-01-11T00:24:01.353Z,0.77
2023-01-11T00:24:13.236Z,0.73
2023-01-11T00:24:25.228Z,0.77
2023-01-11T00:24:37.219Z,0.90
2023-01-11T00:24:49.111Z,1.00
2023-01-11T00:25:01.046Z,0.90
2023-01-11T00:25:15.583Z,0.90
2023-01-11T00:25:27.574Z,0.90
2023-01-11T00:25:39.561Z,0.90
2023-01-11T00:25:51.533Z,0.85
2023-01-11T00:26:05.368Z,0.77
2023-01-11T00:26:22.105Z,0.80
2023-01-11T00:26:37.354Z,0.93
2023-01-11T00:26:49.297Z,0.90
2023-01-11T00:27:01.526Z,1.00
2023-01-11T00:27:13.652Z,0.93
2023-01-11T00:27:25.649Z,0.80
2023-01-11T00:27:37.582Z,0.70
2023-01-11T00:27:49.725Z,0.90
2023-01-11T00:28:01.704Z,1.00
2023-01-11T00:28:13.760Z,0.93
2023-01-11T00:28:25.693Z,0.90
2023-01-11T00:28:37.768Z,0.80
2023-01-11T00:28:49.855Z,0.80
2023-01-11T00:29:01.923Z,0.80
2023-01-11T00:29:13.905Z,0.80
2023-01-11T00:29:26.205Z,0.80
2023-01-11T00:29:38.133Z,0.70
2023-01-11T00:29:50.118Z,0.80
2023-01-11T00:30:02.478Z,0.80
2023-01-11T00:30:14.767Z,0.80
2023-01-11T00:30:26.769Z,0.82
2023-01-11T00:30:39.039Z,0.82
2023-01-11T00:30:50.917Z,0.80
2023-01-11T00:31:03.458Z,0.70
2023-01-11T00:31:16.282Z,0.73
2023-01-11T00:31:28.349Z,0.80
2023-01-11T00:31:40.361Z,0.80
2023-01-11T00:31:53.490Z,0.73
2023-01-11T00:32:05.637Z,0.70
2023-01-11T00:32:17.654Z,0.70
2023-01-11T00:32:32.330Z,0.70
2023-01-11T00:32:44.533Z,0.70
2023-01-11T00:32:58.454Z,0.70
2023-01-11T00:33:11.020Z,0.70
2023-01-11T00:33:22.987Z,0.93
2023-01-11T00:33:35.246Z,1.00
2023-01-11T00:33:47.243Z,0.93
2023-01-11T00:33:59.261Z,0.93
2023-01-11T00:34:11.317Z,0.88
2023-01-11T00:34:23.233Z,0.93
2023-01-11T00:34:35.147Z,0.80
2023-01-11T00:34:47.092Z,0.80
2023-01-11T00:34:59.027Z,0.77
2023-01-11T00:35:11.343Z,0.80
2023-01-11T00:35:23.761Z,0.88
2023-01-11T00:35:35.646Z,0.93
2023-01-11T00:35:47.591Z,0.90
2023-01-11T00:35:59.629Z,0.90
2023-01-11T00:36:11.634Z,0.82
2023-01-11T00:36:23.525Z,0.80
2023-01-11T00:36:35.464Z,0.70
2023-01-11T00:36:47.364Z,0.80
2023-01-11T00:36:59.249Z,0.80
2023-01-11T00:37:11.120Z,0.88
2023-01-11T00:37:23.056Z,0.80
2023-01-11T00:37:35.143Z,0.75
2023-01-11T00:37:47.059Z,0.80
2023-01-11T00:38:02.217Z,0.90
2023-01-11T00:38:34.166Z,0.85
2023-01-11T00:38:53.579Z,0.73
2023-01-11T00:39:05.493Z,0.90
2023-01-11T00:39:17.740Z,0.90
2023-01-11T00:39:29.935Z,0.80
2023-01-11T00:39:41.853Z,0.90
2023-01-11T00:39:53.907Z,1.00
2023-01-11T00:40:06.432Z,1.10
2023-01-11T00:40:18.519Z,1.20
2023-01-11T00:40:30.548Z,0.88
2023-01-11T00:40:42.491Z,0.80
2023-01-11T00:40:54.390Z,0.70
2023-01-11T00:41:25.537Z,0.75
2023-01-11T00:41:55.758Z,1.30
2023-01-11T00:42:32.378Z,1.70
2023-01-11T00:43:02.743Z,0.80
2023-01-11T00:43:33.739Z,0.77
2023-01-11T00:44:04.290Z,0.75
2023-01-11T00:44:34.689Z,0.82
2023-01-11T00:45:05.093Z,0.75
2023-01-11T00:45:36.052Z,1.00
2023-01-11T00:46:06.413Z,0.80
2023-01-11T00:46:36.741Z,0.90
2023-01-11T00:47:07.606Z,1.25
2023-01-11T00:47:37.919Z,1.15
2023-01-11T00:48:00.292Z,0.80
2023-01-11T00:48:12.224Z,1.10
2023-01-11T00:48:24.223Z,1.17
2023-01-11T00:48:36.134Z,0.93
2023-01-11T00:48:48.127Z,0.90
2023-01-11T00:48:59.997Z,0.77
2023-01-11T00:49:12.016Z,0.80
2023-01-11T00:49:24.148Z,0.73
2023-01-11T00:49:36.144Z,0.95
2023-01-11T00:49:48.181Z,1.25
2023-01-11T00:50:00.096Z,1.20
2023-01-11T00:50:12.132Z,0.98
2023-01-11T00:50:25.482Z,0.80
2023-01-11T00:50:40.490Z,0.80
2023-01-11T00:50:55.276Z,0.90
2023-01-11T00:51:07.343Z,0.82
2023-01-11T00:51:19.322Z,0.70
2023-01-11T00:51:31.347Z,0.60
2023-01-11T00:51:43.315Z,0.77
2023-01-11T00:51:55.294Z,0.90
2023-01-11T00:52:09.612Z,0.90
2023-01-11T00:52:22.192Z,0.77
2023-01-11T00:52:34.164Z,0.70
2023-01-11T00:52:46.103Z,0.60
2023-01-11T00:52:59.217Z,0.73
2023-01-11T00:53:11.316Z,0.70
2023-01-11T00:53:23.286Z,0.75
2023-01-11T00:53:35.286Z,0.85
2023-01-11T00:53:48.334Z,0.88
2023-01-11T00:54:00.364Z,0.75
2023-01-11T00:54:12.269Z,0.80
2023-01-11T00:54:24.232Z,0.80
2023-01-11T00:54:37.476Z,0.80
2023-01-11T00:54:49.775Z,0.75
2023-01-11T00:55:01.834Z,0.70
2023-01-11T00:55:13.811Z,0.70
2023-01-11T00:55:26.762Z,0.80
2023-01-11T00:55:38.962Z,0.80
2023-01-11T00:55:50.852Z,0.80
2023-01-11T00:56:02.934Z,0.77
2023-01-11T00:56:14.813Z,0.70
2023-01-11T00:56:26.673Z,0.65
2023-01-11T00:56:38.786Z,0.80
2023-01-11T00:56:50.740Z,0.80
2023-01-11T00:57:03.155Z,0.60
2023-01-11T00:57:15.038Z,0.60
2023-01-11T00:57:26.941Z,0.60
2023-01-11T00:57:39.032Z,0.60
2023-01-11T00:57:51.449Z,0.65
2023-01-11T00:58:04.062Z,0.70
2023-01-11T00:58:16.162Z,0.75
2023-01-11T00:58:28.102Z,0.68
2023-01-11T00:58:40.050Z,0.60
2023-01-11T00:58:51.985Z,0.68
2023-01-11T00:59:04.703Z,0.80
2023-01-11T00:59:16.770Z,0.70
2023-01-11T00:59:28.760Z,0.70
2023-01-11T00:59:41.150Z,0.70
2023-01-11T00:59:53.044Z,0.70
2023-01-11T01:00:06.399Z,0.77
2023-01-11T01:00:20.220Z,0.70
2023-01-11T01:00:32.193Z,0.60
2023-01-11T01:00:44.123Z,0.60
2023-01-11T01:00:56.132Z,0.60
2023-01-11T01:01:08.254Z,0.57
2023-01-11T01:01:20.493Z,0.68
2023-01-11T01:01:32.707Z,0.60
2023-01-11T01:01:45.059Z,0.70
2023-01-11T01:01:57.056Z,0.80
2023-01-11T01:02:10.143Z,0.80
2023-01-11T01:02:22.535Z,0.70
2023-01-11T01:02:34.595Z,0.70
2023-01-11T01:02:47.098Z,0.70
2023-01-11T01:02:59.322Z,0.90
2023-01-11T01:03:11.351Z,1.00
2023-01-11T01:03:23.286Z,0.85
2023-01-11T01:03:35.470Z,0.73
2023-01-11T01:03:47.370Z,0.70
2023-01-11T01:04:02.759Z,0.70
2023-01-11T01:04:14.676Z,0.70
2023-01-11T01:04:26.580Z,0.70
2023-01-11T01:04:39.396Z,0.70
2023-01-11T01:04:51.517Z,0.75
2023-01-11T01:05:03.654Z,0.70
2023-01-11T01:05:16.068Z,0.60
2023-01-11T01:05:28.115Z,0.70
2023-01-11T01:05:40.073Z,0.70
2023-01-11T01:05:54.827Z,0.77
2023-01-11T01:06:06.745Z,0.80
2023-01-11T01:06:19.101Z,0.80
2023-01-11T01:06:31.192Z,0.60
2023-01-11T01:06:43.169Z,0.70
2023-01-11T01:06:55.223Z,0.80
2023-01-11T01:07:07.603Z,0.85
2023-01-11T01:07:19.485Z,0.60
2023-01-11T01:07:31.585Z,0.60
2023-01-11T01:07:43.964Z,0.70
2023-01-11T01:07:55.890Z,0.70
2023-01-11T01:08:09.964Z,0.65
2023-01-11T01:08:21.907Z,0.65
2023-01-11T01:08:33.969Z,0.68
2023-01-11T01:08:45.865Z,0.65
2023-01-11T01:08:57.804Z,0.77
2023-01-11T01:09:09.812Z,0.80
2023-01-11T01:09:21.961Z,0.90
2023-01-11T01:09:34.504Z,0.70
2023-01-11T01:09:46.439Z,0.70
2023-01-11T01:09:58.637Z,0.68
2023-01-11T01:10:12.802Z,0.65
2023-01-11T01:10:24.695Z,0.68
2023-01-11T01:10:36.600Z,0.70
2023-01-11T01:10:52.193Z,0.90
2023-01-11T01:11:04.177Z,0.98
2023-01-11T01:11:16.166Z,0.95
2023-01-11T01:11:28.172Z,0.85
2023-01-11T01:11:40.072Z,0.80
2023-01-11T01:11:52.092Z,0.80
2023-01-11T01:12:06.889Z,0.70
2023-01-11T01:12:37.353Z,0.80
2023-01-11T01:13:07.771Z,0.70
2023-01-11T01:13:38.189Z,0.80
2023-01-11T01:14:08.650Z,0.90
2023-01-11T01:14:28.733Z,0.80
2023-01-11T01:14:42.200Z,0.93
2023-01-11T01:14:54.138Z,0.80
2023-01-11T01:15:06.544Z,0.75
2023-01-11T01:15:19.454Z,0.82
2023-01-11T01:15:32.256Z,0.82
2023-01-11T01:15:44.317Z,0.98
2023-01-11T01:15:58.793Z,1.00
2023-01-11T01:16:10.830Z,1.00
2023-01-11T01:16:22.945Z,0.90
2023-01-11T01:16:34.931Z,0.90
2023-01-11T01:16:47.774Z,0.90
2023-01-11T01:17:08.138Z,0.90
2023-01-11T01:17:20.137Z,1.00
2023-01-11T01:17:32.075Z,0.98
2023-01-11T01:17:44.087Z,0.90
2023-01-11T01:17:56.562Z,1.00
2023-01-11T01:18:09.192Z,1.10
2023-01-11T01:18:22.187Z,1.05
2023-01-11T01:18:34.059Z,0.90
2023-01-11T01:18:46.236Z,1.00
2023-01-11T01:18:59.352Z,0.90
2023-01-11T01:19:12.177Z,0.82
2023-01-11T01:19:27.606Z,1.00
2023-01-11T01:19:39.594Z,1.00
2023-01-11T01:19:51.650Z,1.00
2023-01-11T01:20:04.350Z,1.00
2023-01-11T01:20:16.434Z,1.00
2023-01-11T01:20:28.492Z,0.93
2023-01-11T01:20:42.913Z,1.00
2023-01-11T01:20:54.858Z,0.95
2023-01-11T01:21:06.743Z,1.00
2023-01-11T01:21:18.900Z,1.00
2023-01-11T01:21:30.828Z,1.00
2023-01-11T01:21:42.862Z,0.85
2023-01-11T01:21:56.230Z,1.10
2023-01-11T01:22:08.403Z,1.33
2023-01-11T01:22:20.395Z,1.70
2023-01-11T01:22:32.382Z,1.83
2023-01-11T01:22:44.330Z,2.03
2023-01-11T01:22:56.287Z,1.85
2023-01-11T01:23:08.272Z,1.65
2023-01-11T01:23:20.194Z,1.37
2023-01-11T01:23:32.127Z,1.38
2023-01-11T01:23:44.053Z,1.45
2023-01-11T01:23:57.047Z,1.50
2023-01-11T01:24:09.000Z,1.60
2023-01-11T01:24:21.588Z,1.63
2023-01-11T01:24:33.938Z,1.65
2023-01-11T01:24:45.996Z,1.50
2023-01-11T01:24:58.027Z,1.25
2023-01-11T01:25:10.273Z,0.98
2023-01-11T01:25:22.530Z,0.90
2023-01-11T01:25:36.725Z,0.80
2023-01-11T01:25:48.648Z,0.80
2023-01-11T01:26:06.105Z,0.88
2023-01-11T01:26:18.054Z,0.90
2023-01-11T01:26:30.000Z,0.90
2023-01-11T01:26:42.081Z,0.98
2023-01-11T01:26:54.571Z,1.00
2023-01-11T01:27:06.569Z,0.85
2023-01-11T01:27:20.024Z,0.85
2023-01-11T01:27:31.984Z,0.90
2023-01-11T01:27:44.230Z,0.82
2023-01-11T01:27:56.145Z,0.80
2023-01-11T01:28:08.078Z,0.90
2023-01-11T01:28:22.411Z,0.85
2023-01-11T01:28:34.433Z,0.80
2023-01-11T01:28:46.407Z,0.98
2023-01-11T01:28:58.289Z,1.00
2023-01-11T01:29:10.323Z,0.88
2023-01-11T01:29:22.232Z,0.80
2023-01-11T01:29:34.204Z,0.95
2023-01-11T01:29:46.253Z,1.05
2023-01-11T01:29:58.166Z,1.00
2023-01-11T01:30:10.880Z,0.93
2023-01-11T01:30:22.828Z,1.00
2023-01-11T01:30:34.784Z,1.02
2023-01-11T01:30:50.951Z,1.02
2023-01-11T01:31:03.018Z,0.93
2023-01-11T01:31:14.944Z,0.85
2023-01-11T01:31:26.934Z,0.90
2023-01-11T01:31:38.948Z,1.10
2023-01-11T01:31:51.126Z,1.02
2023-01-11T01:32:03.084Z,0.80
2023-01-11T01:32:14.980Z,0.85
2023-01-11T01:32:26.996Z,0.93
2023-01-11T01:32:39.149Z,0.90
2023-01-11T01:32:51.111Z,0.80
2023-01-11T01:33:02.983Z,0.88
2023-01-11T01:33:15.015Z,0.80
2023-01-11T01:33:26.952Z,0.73
2023-01-11T01:33:39.102Z,0.80
2023-01-11T01:33:51.019Z,0.80
2023-01-11T01:34:03.010Z,0.70
2023-01-11T01:34:17.964Z,0.77
2023-01-11T01:34:29.907Z,0.75
2023-01-11T01:34:41.841Z,0.70
2023-01-11T01:34:53.721Z,0.77
2023-01-11T01:35:06.015Z,0.80
2023-01-11T01:35:17.894Z,0.80
2023-01-11T01:35:30.006Z,0.75
2023-01-11T01:35:41.885Z,0.80
2023-01-11T01:35:53.809Z,0.90
2023-01-11T01:36:06.052Z,0.82
2023-01-11T01:36:18.048Z,0.80
2023-01-11T01:36:29.976Z,0.73
2023-01-11T01:36:42.152Z,0.63
2023-01-11T01:36:54.104Z,0.65
2023-01-11T01:37:11.032Z,0.70
2023-01-11T01:37:23.303Z,0.80
2023-01-11T01:37:35.318Z,0.80
2023-01-11T01:37:47.229Z,0.95
2023-01-11T01:37:59.198Z,1.00
2023-01-11T01:38:11.181Z,0.95
2023-01-11T01:38:25.789Z,0.90
2023-01-11T01:38:38.119Z,0.90
2023-01-11T01:38:50.099Z,0.80
2023-01-11T01:39:03.278Z,0.80
2023-01-11T01:39:15.237Z,0.80
2023-01-11T01:39:27.936Z,0.80
2023-01-11T01:39:39.824Z,0.80
2023-01-11T01:39:51.909Z,0.60
2023-01-11T01:40:05.020Z,0.70
2023-01-11T01:40:17.097Z,0.80
2023-01-11T01:40:29.047Z,0.80
2023-01-11T01:40:48.591Z,0.82
2023-01-11T01:41:00.968Z,0.80
2023-01-11T01:41:13.627Z,0.80
2023-01-11T01:41:25.542Z,0.90
2023-01-11T01:41:38.263Z,0.80
2023-01-11T01:41:50.170Z,0.82
2023-01-11T01:42:02.100Z,0.90
2023-01-11T01:42:19.191Z,0.90
2023-01-11T01:42:31.107Z,0.80
2023-01-11T01:42:43.203Z,0.77
2023-01-11T01:42:55.218Z,0.70
2023-01-11T01:43:11.164Z,0.70
2023-01-11T01:43:44.014Z,0.90
2023-01-11T01:44:02.733Z,0.80
2023-01-11T01:44:52.795Z,0.70
2023-01-11T01:45:24.404Z,0.90
2023-01-11T01:45:36.373Z,0.70
2023-01-11T01:45:50.245Z,0.70
2023-01-11T01:46:02.227Z,0.70
2023-01-11T01:46:15.026Z,0.90
2023-01-11T01:46:29.905Z,0.88
2023-01-11T01:46:41.944Z,0.85
2023-01-11T01:46:53.885Z,0.90
2023-01-11T01:47:05.863Z,0.80
2023-01-11T01:47:20.162Z,0.80
2023-01-11T01:47:45.503Z,0.80
2023-01-11T01:48:00.872Z,0.80
2023-01-11T01:48:16.004Z,0.80
2023-01-11T01:48:28.382Z,0.93
2023-01-11T01:48:46.067Z,0.90
2023-01-11T01:48:57.932Z,0.95
2023-01-11T01:49:14.895Z,1.00
2023-01-11T01:49:26.836Z,0.80
2023-01-11T01:49:40.654Z,0.80
2023-01-11T01:49:52.893Z,0.80
2023-01-11T01:50:12.621Z,0.80
2023-01-11T01:50:46.395Z,0.80
2023-01-11T01:51:02.089Z,0.93
2023-01-11T01:51:21.089Z,0.93
2023-01-11T01:51:54.736Z,0.82
2023-01-11T01:52:08.773Z,0.70
2023-01-11T01:52:21.331Z,0.70
2023-01-11T01:52:35.360Z,0.75
2023-01-11T01:52:51.858Z,0.70
2023-01-11T01:53:12.632Z,0.70
2023-01-11T01:53:37.001Z,1.00
2023-01-11T01:53:52.626Z,0.90
2023-01-11T01:54:09.024Z,1.00
2023-01-11T01:54:27.547Z,0.95
2023-01-11T01:54:45.017Z,0.80
2023-01-11T01:55:05.692Z,0.93
2023-01-11T01:55:26.101Z,1.05
2023-01-11T01:55:41.140Z,0.90
2023-01-11T01:55:57.827Z,0.75
2023-01-11T01:56:42.748Z,0.90
2023-01-11T01:57:00.493Z,0.90
2023-01-11T01:57:23.989Z,0.90
2023-01-11T01:57:39.970Z,1.25
2023-01-11T01:57:53.530Z,1.95
2023-01-11T01:58:12.256Z,1.65
2023-01-11T01:58:31.309Z,0.82
2023-01-11T01:58:54.350Z,0.80
2023-01-11T01:59:12.760Z,0.80
2023-01-11T01:59:27.338Z,0.70
2023-01-11T01:59:41.530Z,0.68
2023-01-11T01:59:57.812Z,0.70
2023-01-11T02:00:11.014Z,0.90
2023-01-11T02:00:23.100Z,1.00
2023-01-11T02:00:37.625Z,1.00
2023-01-11T02:00:49.639Z,1.00
2023-01-11T02:01:22.548Z,0.90
2023-01-11T02:01:49.916Z,0.82
2023-01-11T02:02:02.093Z,0.80
2023-01-11T02:02:14.292Z,0.70
2023-01-11T02:02:26.487Z,0.70
2023-01-11T02:02:40.880Z,0.70
2023-01-11T02:02:53.584Z,0.70
2023-01-11T02:03:06.381Z,0.80
2023-01-11T02:03:22.674Z,1.10
2023-01-11T02:03:34.618Z,1.13
2023-01-11T02:03:47.507Z,1.00
2023-01-11T02:03:59.612Z,1.30
2023-01-11T02:04:16.816Z,1.50
2023-01-11T02:04:30.014Z,1.30
2023-01-11T02:04:44.875Z,1.27
2023-01-11T02:04:58.086Z,1.27
2023-01-11T02:05:11.836Z,1.10
2023-01-11T02:05:23.893Z,0.85
2023-01-11T02:05:35.839Z,0.88
2023-01-11T02:05:49.267Z,0.95
2023-01-11T02:06:01.467Z,1.00
2023-01-11T02:06:13.806Z,0.98
2023-01-11T02:06:26.084Z,0.90
2023-01-11T02:06:39.035Z,0.75
2023-01-11T02:06:54.919Z,0.70
2023-01-11T02:07:11.195Z,0.68
2023-01-11T02:07:28.767Z,0.70
2023-01-11T02:07:41.463Z,0.60
2023-01-11T02:07:56.254Z,0.52
2023-01-11T02:08:16.249Z,0.70
2023-01-11T02:08:37.327Z,0.95
2023-01-11T02:08:56.665Z,0.85
2023-01-11T02:09:32.855Z,0.70
2023-01-11T02:09:55.622Z,0.60
2023-01-11T02:10:16.715Z,0.73
2023-01-11T02:10:29.015Z,0.63
2023-01-11T02:10:40.972Z,0.80
2023-01-11T02:10:54.306Z,0.80
2023-01-11T02:11:27.683Z,0.90
2023-01-11T02:11:43.436Z,0.90
2023-01-11T02:11:57.379Z,0.80
2023-01-11T02:12:09.735Z,1.67
2023-01-11T02:12:24.523Z,2.13
2023-01-11T02:12:42.337Z,1.75
2023-01-11T02:13:03.156Z,1.05
2023-01-11T02:13:15.366Z,0.80
2023-01-11T02:13:27.830Z,0.63
2023-01-11T02:13:46.024Z,0.70
2023-01-11T02:14:05.590Z,0.70
2023-01-11T02:14:20.211Z,0.68
2023-01-11T02:14:33.526Z,0.73
2023-01-11T02:14:47.256Z,0.85
2023-01-11T02:15:01.083Z,0.90
2023-01-11T02:15:14.644Z,0.90
2023-01-11T02:15:27.148Z,0.80
2023-01-11T02:15:39.279Z,0.75
2023-01-11T02:16:07.529Z,0.80
2023-01-11T02:16:20.118Z,0.90
2023-01-11T02:16:32.424Z,1.00
2023-01-11T02:16:44.730Z,1.00
2023-01-11T02:16:56.740Z,0.90
2023-01-11T02:17:09.385Z,0.80
2023-01-11T02:17:21.792Z,0.90
2023-01-11T02:17:33.801Z,1.00
2023-01-11T02:17:45.816Z,1.33
2023-01-11T02:17:57.898Z,1.67
2023-01-11T02:18:12.300Z,1.73
2023-01-11T02:18:24.256Z,1.33
2023-01-11T02:18:38.383Z,1.10
2023-01-11T02:18:50.622Z,1.00
2023-01-11T02:19:06.491Z,0.95
2023-01-11T02:19:28.066Z,1.30
2023-01-11T02:20:26.776Z,1.20
2023-01-11T02:21:06.351Z,0.77
2023-01-11T02:21:26.718Z,1.20
2023-01-11T02:21:57.183Z,1.10
2023-01-11T02:22:27.856Z,0.90
2023-01-11T02:23:11.831Z,1.17
2023-01-11T02:23:57.568Z,0.90
2023-01-11T02:24:32.049Z,0.80
2023-01-11T02:25:16.301Z,0.82
2023-01-11T02:25:47.128Z,0.80
2023-01-11T02:26:31.611Z,0.93
2023-01-11T02:27:17.776Z,1.00
2023-01-11T02:27:48.207Z,0.80
2023-01-11T02:28:15.067Z,0.70
2023-01-11T02:28:31.879Z,0.80
2023-01-11T02:28:43.790Z,1.67
2023-01-11T02:29:10.402Z,1.70
2023-01-11T02:29:41.954Z,0.95
2023-01-11T02:30:17.307Z,0.85
2023-01-11T02:31:06.721Z,0.85
2023-01-11T02:31:41.309Z,0.70
2023-01-11T02:32:02.206Z,0.80
2023-01-11T02:32:31.659Z,0.80
2023-01-11T02:32:55.828Z,0.80
2023-01-11T02:33:19.884Z,0.70
2023-01-11T02:33:54.550Z,0.70
2023-01-11T02:34:27.266Z,0.70
2023-01-11T02:34:57.151Z,0.80
2023-01-11T02:35:15.692Z,0.70
2023-01-11T02:35:48.567Z,0.70
2023-01-11T02:36:24.802Z,0.63
2023-01-11T02:36:51.678Z,0.80
2023-01-11T02:37:21.750Z,0.70
2023-01-11T02:37:41.736Z,0.88
2023-01-11T02:38:12.055Z,0.85
2023-01-11T02:38:33.607Z,0.80
2023-01-11T02:39:10.948Z,0.75
2023-01-11T02:39:44.557Z,0.70
2023-01-11T02:40:16.875Z,0.70
2023-01-11T02:40:48.064Z,0.77
2023-01-11T02:41:55.456Z,0.65
2023-01-11T02:42:49.085Z,0.82
2023-01-11T02:43:34.084Z,0.70
2023-01-11T02:44:19.542Z,0.90
2023-01-11T02:44:58.725Z,0.60
2023-01-11T02:45:44.498Z,0.60
2023-01-11T02:46:12.162Z,1.10
2023-01-11T02:46:31.501Z,0.82
2023-01-11T02:46:53.884Z,0.80
2023-01-11T02:47:18.368Z,1.00
2023-01-11T02:47:45.244Z,0.90
2023-01-11T02:48:14.501Z,0.90
2023-01-11T02:48:58.813Z,0.75
2023-01-11T02:49:32.307Z,0.70
2023-01-11T02:50:07.675Z,0.93
2023-01-11T02:50:29.781Z,0.80
2023-01-11T02:51:05.853Z,0.80
2023-01-11T02:51:38.253Z,0.80
2023-01-11T02:52:14.634Z,0.80
2023-01-11T02:52:36.388Z,0.70
2023-01-11T02:53:00.921Z,0.80
2023-01-11T02:53:18.560Z,0.70
2023-01-11T02:53:51.192Z,0.70
2023-01-11T02:54:08.953Z,0.80
2023-01-11T02:54:24.103Z,0.80
2023-01-11T02:54:37.971Z,0.77
2023-01-11T02:54:56.427Z,0.70
2023-01-11T02:55:13.286Z,0.75
2023-01-11T02:55:31.156Z,1.00
2023-01-11T02:55:49.381Z,0.70
2023-01-11T02:56:07.125Z,0.85
2023-01-11T02:56:23.393Z,1.05
2023-01-11T02:56:40.880Z,1.08
2023-01-11T02:56:58.678Z,1.20
2023-01-11T02:57:12.125Z,1.10
2023-01-11T02:57:26.582Z,1.00
2023-01-11T02:57:39.836Z,1.02
2023-01-11T02:57:56.252Z,0.90
2023-01-11T02:58:11.317Z,0.80
2023-01-11T02:58:27.262Z,0.80
2023-01-11T02:58:44.671Z,0.85
2023-01-11T02:58:58.443Z,0.80
2023-01-11T02:59:17.564Z,0.70
2023-01-11T02:59:33.067Z,0.82
2023-01-11T02:59:48.979Z,0.90
2023-01-11T03:00:02.203Z,0.98
2023-01-11T03:00:16.872Z,0.80
2023-01-11T03:00:29.178Z,0.73
2023-01-11T03:00:42.409Z,0.88
2023-01-11T03:00:55.873Z,0.90
2023-01-11T03:01:08.080Z,0.80
2023-01-11T03:01:22.611Z,0.85
2023-01-11T03:01:47.339Z,0.90
2023-01-11T03:01:59.651Z,1.00
2023-01-11T03:02:12.913Z,1.00
2023-01-11T03:02:25.362Z,1.00
2023-01-11T03:02:37.353Z,1.25
2023-01-11T03:03:33.750Z,1.60
2023-01-11T03:03:45.694Z,1.70
2023-01-11T03:03:58.834Z,1.48
2023-01-11T03:04:32.883Z,1.15
2023-01-11T03:04:44.830Z,0.90
2023-01-11T03:04:56.875Z,0.95
2023-01-11T03:05:13.712Z,0.90
2023-01-11T03:05:25.699Z,0.75
2023-01-11T03:05:43.775Z,0.80
2023-01-11T03:06:12.576Z,0.90
2023-01-11T03:06:28.455Z,0.70
2023-01-11T03:06:40.525Z,0.77
2023-01-11T03:06:59.052Z,0.70
2023-01-11T03:07:33.929Z,0.70
2023-01-11T03:07:56.096Z,0.70
2023-01-11T03:08:19.982Z,0.80
2023-01-11T03:08:52.292Z,0.88
2023-01-11T03:09:12.919Z,0.90
2023-01-11T03:09:38.531Z,0.93
2023-01-11T03:09:59.374Z,1.45
2023-01-11T03:10:18.331Z,1.50
2023-01-11T03:10:56.310Z,1.30
2023-01-11T03:11:36.480Z,1.20
2023-01-11T03:12:41.585Z,1.10
2023-01-11T03:13:19.608Z,0.80
2023-01-11T03:13:37.003Z,0.80
2023-01-11T03:14:24.359Z,0.80
2023-01-11T03:15:13.984Z,0.90
2023-01-11T03:15:50.691Z,0.70
2023-01-11T03:16:02.853Z,0.80
2023-01-11T03:16:21.689Z,0.70
2023-01-11T03:16:51.995Z,0.80
2023-01-11T03:17:15.578Z,0.90
2023-01-11T03:17:30.207Z,0.90
2023-01-11T03:18:12.429Z,0.88
2023-01-11T03:18:42.976Z,0.88
2023-01-11T03:19:33.763Z,0.90
2023-01-11T03:20:05.640Z,1.20
2023-01-11T03:20:46.853Z,3.17
2023-01-11T03:21:39.670Z,1.90
2023-01-11T03:21:54.433Z,1.35
2023-01-11T03:22:16.052Z,2.08
2023-01-11T03:22:39.146Z,1.43
2023-01-11T03:23:10.714Z,1.00
2023-01-11T03:23:52.163Z,0.93
2023-01-11T03:24:22.047Z,1.10
2023-01-11T03:24:46.767Z,0.90
2023-01-11T03:25:13.904Z,0.90
2023-01-11T03:25:38.009Z,0.93
2023-01-11T03:26:32.175Z,0.80
2023-01-11T03:26:51.664Z,0.98
2023-01-11T03:27:22.297Z,0.80
2023-01-11T03:27:53.640Z,1.02
2023-01-11T03:28:50.271Z,0.68
2023-01-11T03:29:17.380Z,0.90
2023-01-11T03:29:38.903Z,0.90
2023-01-11T03:30:08.168Z,0.68
2023-01-11T03:30:45.888Z,0.73
2023-01-11T03:31:03.911Z,0.70
2023-01-11T03:31:35.068Z,0.80
2023-01-11T03:31:57.495Z,0.70
2023-01-11T03:32:11.983Z,0.70
2023-01-11T03:32:27.380Z,0.80
2023-01-11T03:32:51.030Z,1.00
2023-01-11T03:33:24.550Z,1.02
2023-01-11T03:33:46.575Z,0.90
2023-01-11T03:34:10.706Z,0.70
2023-01-11T03:34:32.870Z,0.70
2023-01-11T03:35:02.083Z,0.88
2023-01-11T03:35:26.176Z,0.90
2023-01-11T03:35:46.065Z,0.90
2023-01-11T03:36:07.533Z,1.00
2023-01-11T03:36:31.989Z,0.80
2023-01-11T03:36:55.584Z,0.80
2023-01-11T03:37:45.481Z,0.88
2023-01-11T03:38:10.686Z,0.80
2023-01-11T03:38:34.981Z,0.60
2023-01-11T03:38:49.889Z,0.70
2023-01-11T03:39:23.561Z,0.70
2023-01-11T03:39:40.077Z,1.05
2023-01-11T03:40:18.741Z,1.20
2023-01-11T03:40:34.852Z,1.20
2023-01-11T03:40:53.392Z,1.00
2023-01-11T03:41:10.994Z,1.10
2023-01-11T03:41:27.567Z,1.30
2023-01-11T03:41:42.036Z,1.50
2023-01-11T03:41:57.664Z,1.40
2023-01-11T03:42:13.659Z,1.60
2023-01-11T03:42:27.361Z,1.70
2023-01-11T03:43:04.152Z,1.33
2023-01-11T03:43:19.359Z,1.20
2023-01-11T03:43:36.529Z,0.85
2023-01-11T03:43:51.844Z,0.60
2023-01-11T03:44:07.519Z,0.70
2023-01-11T03:44:20.903Z,0.82
2023-01-11T03:44:38.452Z,1.15
2023-01-11T03:44:55.219Z,1.30
2023-01-11T03:45:10.330Z,1.30
2023-01-11T03:45:23.611Z,1.30
2023-01-11T03:45:42.221Z,1.17
2023-01-11T03:45:54.115Z,1.15
2023-01-11T03:46:11.844Z,1.20
2023-01-11T03:46:33.904Z,1.30